sensor_id;sensor_type;location;lat;lon;timestamp;P1;durP1;ratioP1;P2;durP2;ratioP2
52294;SDS011;38243;53.212;6.574;2023-12-07T00:01:35;3.00;;;2.00;;
52294;SDS011;38243;53.212;6.574;2023-12-07T00:04:02;2.42;;;1.80;;
52294;SDS011;38243;53.212;6.574;2023-12-07T00:06:28;3.08;;;1.95;;
52294;SDS011;38243;53.212;6.574;2023-12-07T00:08:54;2.75;;;1.98;;
52294;SDS011;38243;53.212;6.574;2023-12-07T00:11:27;1.90;;;1.70;;
52294;SDS011;38243;53.212;6.574;2023-12-07T00:13:53;2.40;;;1.75;;
52294;SDS011;38243;53.212;6.574;2023-12-07T00:16:18;4.97;;;2.65;;
52294;SDS011;38243;53.212;6.574;2023-12-07T00:18:44;2.10;;;1.67;;
52294;SDS011;38243;53.212;6.574;2023-12-07T00:21:10;3.50;;;1.90;;
52294;SDS011;38243;53.212;6.574;2023-12-07T00:23:36;2.45;;;1.95;;
52294;SDS011;38243;53.212;6.574;2023-12-07T00:26:04;2.25;;;1.70;;
52294;SDS011;38243;53.212;6.574;2023-12-07T00:28:30;2.88;;;1.80;;
52294;SDS011;38243;53.212;6.574;2023-12-07T00:30:56;1.60;;;1.40;;
52294;SDS011;38243;53.212;6.574;2023-12-07T00:33:21;2.90;;;1.85;;
52294;SDS011;38243;53.212;6.574;2023-12-07T00:35:47;2.42;;;2.10;;
52294;SDS011;38243;53.212;6.574;2023-12-07T00:38:13;3.20;;;1.98;;
52294;SDS011;38243;53.212;6.574;2023-12-07T00:40:39;1.77;;;1.60;;
52294;SDS011;38243;53.212;6.574;2023-12-07T00:43:05;2.05;;;1.58;;
52294;SDS011;38243;53.212;6.574;2023-12-07T00:45:34;2.22;;;1.95;;
52294;SDS011;38243;53.212;6.574;2023-12-07T00:48:00;3.53;;;2.00;;
52294;SDS011;38243;53.212;6.574;2023-12-07T00:50:27;2.78;;;1.85;;
52294;SDS011;38243;53.212;6.574;2023-12-07T00:52:53;2.10;;;1.65;;
52294;SDS011;38243;53.212;6.574;2023-12-07T00:55:19;2.00;;;1.70;;
52294;SDS011;38243;53.212;6.574;2023-12-07T00:57:45;2.15;;;1.60;;
52294;SDS011;38243;53.212;6.574;2023-12-07T01:00:11;2.20;;;1.67;;
52294;SDS011;38243;53.212;6.574;2023-12-07T01:02:37;2.65;;;1.65;;
52294;SDS011;38243;53.212;6.574;2023-12-07T01:05:03;1.65;;;1.50;;
52294;SDS011;38243;53.212;6.574;2023-12-07T01:07:28;2.20;;;1.60;;
52294;SDS011;38243;53.212;6.574;2023-12-07T01:09:54;2.47;;;1.60;;
52294;SDS011;38243;53.212;6.574;2023-12-07T01:12:20;2.38;;;1.58;;
52294;SDS011;38243;53.212;6.574;2023-12-07T01:14:46;3.03;;;1.70;;
52294;SDS011;38243;53.212;6.574;2023-12-07T01:17:12;2.60;;;1.70;;
52294;SDS011;38243;53.212;6.574;2023-12-07T01:19:38;2.88;;;1.63;;
52294;SDS011;38243;53.212;6.574;2023-12-07T01:22:03;1.73;;;1.50;;
52294;SDS011;38243;53.212;6.574;2023-12-07T01:24:29;2.40;;;1.67;;
52294;SDS011;38243;53.212;6.574;2023-12-07T01:26:55;1.83;;;1.63;;
52294;SDS011;38243;53.212;6.574;2023-12-07T01:29:21;2.05;;;1.50;;
52294;SDS011;38243;53.212;6.574;2023-12-07T01:31:48;2.57;;;1.70;;
52294;SDS011;38243;53.212;6.574;2023-12-07T01:34:14;2.10;;;1.70;;
52294;SDS011;38243;53.212;6.574;2023-12-07T01:36:43;1.98;;;1.75;;
52294;SDS011;38243;53.212;6.574;2023-12-07T01:39:09;2.20;;;1.63;;
52294;SDS011;38243;53.212;6.574;2023-12-07T01:41:38;1.90;;;1.50;;
52294;SDS011;38243;53.212;6.574;2023-12-07T01:44:04;2.40;;;1.50;;
52294;SDS011;38243;53.212;6.574;2023-12-07T01:46:33;1.88;;;1.67;;
52294;SDS011;38243;53.212;6.574;2023-12-07T01:49:00;1.67;;;1.40;;
52294;SDS011;38243;53.212;6.574;2023-12-07T01:51:29;1.90;;;1.60;;
52294;SDS011;38243;53.212;6.574;2023-12-07T01:53:55;2.03;;;1.80;;
52294;SDS011;38243;53.212;6.574;2023-12-07T01:56:21;2.47;;;1.47;;
52294;SDS011;38243;53.212;6.574;2023-12-07T01:58:49;1.83;;;1.50;;
52294;SDS011;38243;53.212;6.574;2023-12-07T02:01:15;1.70;;;1.60;;
52294;SDS011;38243;53.212;6.574;2023-12-07T02:03:41;1.53;;;1.43;;
52294;SDS011;38243;53.212;6.574;2023-12-07T02:06:07;1.83;;;1.60;;
52294;SDS011;38243;53.212;6.574;2023-12-07T02:08:34;1.63;;;1.27;;
52294;SDS011;38243;53.212;6.574;2023-12-07T02:11:00;1.58;;;1.48;;
52294;SDS011;38243;53.212;6.574;2023-12-07T02:13:26;2.00;;;1.50;;
52294;SDS011;38243;53.212;6.574;2023-12-07T02:15:53;2.50;;;1.70;;
52294;SDS011;38243;53.212;6.574;2023-12-07T02:18:36;2.05;;;1.40;;
52294;SDS011;38243;53.212;6.574;2023-12-07T02:21:25;2.35;;;1.50;;
52294;SDS011;38243;53.212;6.574;2023-12-07T02:23:56;2.13;;;1.48;;
52294;SDS011;38243;53.212;6.574;2023-12-07T02:26:27;1.95;;;1.40;;
52294;SDS011;38243;53.212;6.574;2023-12-07T02:29:00;2.33;;;1.45;;
52294;SDS011;38243;53.212;6.574;2023-12-07T02:31:26;1.52;;;1.42;;
52294;SDS011;38243;53.212;6.574;2023-12-07T02:33:53;2.50;;;1.80;;
52294;SDS011;38243;53.212;6.574;2023-12-07T02:36:19;1.60;;;1.50;;
52294;SDS011;38243;53.212;6.574;2023-12-07T02:38:47;3.55;;;1.50;;
52294;SDS011;38243;53.212;6.574;2023-12-07T02:41:16;1.60;;;1.50;;
52294;SDS011;38243;53.212;6.574;2023-12-07T02:43:43;1.87;;;1.63;;
52294;SDS011;38243;53.212;6.574;2023-12-07T02:46:10;1.60;;;1.48;;
52294;SDS011;38243;53.212;6.574;2023-12-07T02:48:36;3.25;;;1.60;;
52294;SDS011;38243;53.212;6.574;2023-12-07T02:51:01;2.03;;;1.40;;
52294;SDS011;38243;53.212;6.574;2023-12-07T02:53:27;2.38;;;1.40;;
52294;SDS011;38243;53.212;6.574;2023-12-07T02:55:53;1.90;;;1.38;;
52294;SDS011;38243;53.212;6.574;2023-12-07T02:58:19;1.40;;;1.30;;
52294;SDS011;38243;53.212;6.574;2023-12-07T03:00:44;1.85;;;1.40;;
52294;SDS011;38243;53.212;6.574;2023-12-07T03:03:10;2.70;;;1.63;;
52294;SDS011;38243;53.212;6.574;2023-12-07T03:05:35;1.20;;;1.10;;
52294;SDS011;38243;53.212;6.574;2023-12-07T03:08:01;2.00;;;1.30;;
52294;SDS011;38243;53.212;6.574;2023-12-07T03:10:27;2.60;;;1.17;;
52294;SDS011;38243;53.212;6.574;2023-12-07T03:12:53;1.95;;;1.38;;
52294;SDS011;38243;53.212;6.574;2023-12-07T03:15:18;2.80;;;1.40;;
52294;SDS011;38243;53.212;6.574;2023-12-07T03:17:44;1.70;;;1.60;;
52294;SDS011;38243;53.212;6.574;2023-12-07T03:20:10;1.43;;;1.33;;
52294;SDS011;38243;53.212;6.574;2023-12-07T03:22:36;1.30;;;1.20;;
52294;SDS011;38243;53.212;6.574;2023-12-07T03:25:02;1.60;;;1.27;;
52294;SDS011;38243;53.212;6.574;2023-12-07T03:27:28;1.83;;;1.15;;
52294;SDS011;38243;53.212;6.574;2023-12-07T03:29:54;1.95;;;1.23;;
52294;SDS011;38243;53.212;6.574;2023-12-07T03:32:19;1.60;;;1.17;;
52294;SDS011;38243;53.212;6.574;2023-12-07T03:34:45;2.08;;;1.30;;
52294;SDS011;38243;53.212;6.574;2023-12-07T03:37:11;1.85;;;1.35;;
52294;SDS011;38243;53.212;6.574;2023-12-07T03:39:37;1.83;;;1.27;;
52294;SDS011;38243;53.212;6.574;2023-12-07T03:42:02;2.17;;;1.40;;
52294;SDS011;38243;53.212;6.574;2023-12-07T03:44:28;2.08;;;1.10;;
52294;SDS011;38243;53.212;6.574;2023-12-07T03:46:54;2.07;;;1.33;;
52294;SDS011;38243;53.212;6.574;2023-12-07T03:49:20;1.92;;;1.17;;
52294;SDS011;38243;53.212;6.574;2023-12-07T03:51:46;1.75;;;1.35;;
52294;SDS011;38243;53.212;6.574;2023-12-07T03:54:11;1.53;;;1.20;;
52294;SDS011;38243;53.212;6.574;2023-12-07T03:56:37;1.40;;;1.20;;
52294;SDS011;38243;53.212;6.574;2023-12-07T03:59:05;2.10;;;1.20;;
52294;SDS011;38243;53.212;6.574;2023-12-07T04:01:31;2.05;;;1.27;;
52294;SDS011;38243;53.212;6.574;2023-12-07T04:03:57;2.00;;;1.10;;
52294;SDS011;38243;53.212;6.574;2023-12-07T04:06:24;2.40;;;1.42;;
52294;SDS011;38243;53.212;6.574;2023-12-07T04:08:50;2.40;;;1.30;;
52294;SDS011;38243;53.212;6.574;2023-12-07T04:11:16;1.50;;;1.20;;
52294;SDS011;38243;53.212;6.574;2023-12-07T04:13:42;1.33;;;1.20;;
52294;SDS011;38243;53.212;6.574;2023-12-07T04:16:08;2.60;;;1.17;;
52294;SDS011;38243;53.212;6.574;2023-12-07T04:18:35;1.30;;;1.10;;
52294;SDS011;38243;53.212;6.574;2023-12-07T04:21:01;2.05;;;1.15;;
52294;SDS011;38243;53.212;6.574;2023-12-07T04:23:27;1.92;;;1.13;;
52294;SDS011;38243;53.212;6.574;2023-12-07T04:25:53;1.10;;;1.00;;
52294;SDS011;38243;53.212;6.574;2023-12-07T04:28:19;1.40;;;1.00;;
52294;SDS011;38243;53.212;6.574;2023-12-07T04:30:45;1.80;;;1.20;;
52294;SDS011;38243;53.212;6.574;2023-12-07T04:33:10;2.00;;;1.07;;
52294;SDS011;38243;53.212;6.574;2023-12-07T04:35:36;1.90;;;1.20;;
52294;SDS011;38243;53.212;6.574;2023-12-07T04:38:02;2.63;;;1.20;;
52294;SDS011;38243;53.212;6.574;2023-12-07T04:40:28;2.80;;;1.20;;
52294;SDS011;38243;53.212;6.574;2023-12-07T04:42:53;1.30;;;1.10;;
52294;SDS011;38243;53.212;6.574;2023-12-07T04:45:19;1.60;;;1.03;;
52294;SDS011;38243;53.212;6.574;2023-12-07T04:47:45;1.95;;;1.25;;
52294;SDS011;38243;53.212;6.574;2023-12-07T04:50:11;1.60;;;1.10;;
52294;SDS011;38243;53.212;6.574;2023-12-07T04:52:38;1.30;;;1.15;;
52294;SDS011;38243;53.212;6.574;2023-12-07T04:55:04;1.90;;;1.00;;
52294;SDS011;38243;53.212;6.574;2023-12-07T04:57:34;1.40;;;1.10;;
52294;SDS011;38243;53.212;6.574;2023-12-07T05:00:00;1.08;;;0.90;;
52294;SDS011;38243;53.212;6.574;2023-12-07T05:02:31;1.42;;;1.13;;
52294;SDS011;38243;53.212;6.574;2023-12-07T05:04:58;1.95;;;1.48;;
52294;SDS011;38243;53.212;6.574;2023-12-07T05:07:23;2.88;;;1.60;;
52294;SDS011;38243;53.212;6.574;2023-12-07T05:09:49;1.20;;;0.93;;
52294;SDS011;38243;53.212;6.574;2023-12-07T05:12:18;2.75;;;1.20;;
52294;SDS011;38243;53.212;6.574;2023-12-07T05:14:44;2.17;;;1.48;;
52294;SDS011;38243;53.212;6.574;2023-12-07T05:17:10;2.30;;;1.10;;
52294;SDS011;38243;53.212;6.574;2023-12-07T05:19:38;1.40;;;1.17;;
52294;SDS011;38243;53.212;6.574;2023-12-07T05:22:04;1.70;;;1.13;;
52294;SDS011;38243;53.212;6.574;2023-12-07T05:24:30;1.27;;;1.10;;
52294;SDS011;38243;53.212;6.574;2023-12-07T05:26:59;1.07;;;0.97;;
52294;SDS011;38243;53.212;6.574;2023-12-07T05:29:25;1.70;;;1.10;;
52294;SDS011;38243;53.212;6.574;2023-12-07T05:31:50;1.38;;;1.20;;
52294;SDS011;38243;53.212;6.574;2023-12-07T05:34:16;2.10;;;1.13;;
52294;SDS011;38243;53.212;6.574;2023-12-07T05:36:43;1.60;;;1.30;;
52294;SDS011;38243;53.212;6.574;2023-12-07T05:39:08;2.33;;;1.13;;
52294;SDS011;38243;53.212;6.574;2023-12-07T05:41:36;2.40;;;1.27;;
52294;SDS011;38243;53.212;6.574;2023-12-07T05:44:02;1.30;;;1.20;;
52294;SDS011;38243;53.212;6.574;2023-12-07T05:46:29;1.50;;;1.23;;
52294;SDS011;38243;53.212;6.574;2023-12-07T05:48:55;1.30;;;1.20;;
52294;SDS011;38243;53.212;6.574;2023-12-07T05:51:20;1.65;;;1.20;;
52294;SDS011;38243;53.212;6.574;2023-12-07T05:53:47;2.80;;;1.38;;
52294;SDS011;38243;53.212;6.574;2023-12-07T05:56:17;2.10;;;1.23;;
52294;SDS011;38243;53.212;6.574;2023-12-07T05:58:44;1.70;;;1.08;;
52294;SDS011;38243;53.212;6.574;2023-12-07T06:01:16;2.10;;;1.50;;
52294;SDS011;38243;53.212;6.574;2023-12-07T06:03:42;1.40;;;1.20;;
52294;SDS011;38243;53.212;6.574;2023-12-07T06:06:09;1.50;;;1.40;;
52294;SDS011;38243;53.212;6.574;2023-12-07T06:08:37;1.30;;;1.20;;
52294;SDS011;38243;53.212;6.574;2023-12-07T06:11:02;2.50;;;1.40;;
52294;SDS011;38243;53.212;6.574;2023-12-07T06:13:28;1.90;;;1.20;;
52294;SDS011;38243;53.212;6.574;2023-12-07T06:15:54;1.15;;;1.05;;
52294;SDS011;38243;53.212;6.574;2023-12-07T06:18:20;1.10;;;1.00;;
52294;SDS011;38243;53.212;6.574;2023-12-07T06:20:45;1.80;;;1.10;;
52294;SDS011;38243;53.212;6.574;2023-12-07T06:23:11;2.45;;;1.10;;
52294;SDS011;38243;53.212;6.574;2023-12-07T06:25:40;1.70;;;1.20;;
52294;SDS011;38243;53.212;6.574;2023-12-07T06:28:07;1.30;;;1.17;;
52294;SDS011;38243;53.212;6.574;2023-12-07T06:30:33;1.58;;;0.95;;
52294;SDS011;38243;53.212;6.574;2023-12-07T06:32:59;2.30;;;0.80;;
52294;SDS011;38243;53.212;6.574;2023-12-07T06:35:25;2.20;;;1.00;;
52294;SDS011;38243;53.212;6.574;2023-12-07T06:37:51;3.88;;;0.95;;
52294;SDS011;38243;53.212;6.574;2023-12-07T06:40:16;2.90;;;1.10;;
52294;SDS011;38243;53.212;6.574;2023-12-07T06:42:42;1.73;;;1.00;;
52294;SDS011;38243;53.212;6.574;2023-12-07T06:45:08;1.50;;;1.00;;
52294;SDS011;38243;53.212;6.574;2023-12-07T06:47:39;2.10;;;0.90;;
52294;SDS011;38243;53.212;6.574;2023-12-07T06:50:07;2.72;;;1.30;;
52294;SDS011;38243;53.212;6.574;2023-12-07T06:52:35;4.00;;;1.35;;
52294;SDS011;38243;53.212;6.574;2023-12-07T06:55:01;1.58;;;1.05;;
52294;SDS011;38243;53.212;6.574;2023-12-07T06:57:27;1.70;;;1.08;;
52294;SDS011;38243;53.212;6.574;2023-12-07T06:59:53;2.42;;;1.00;;
52294;SDS011;38243;53.212;6.574;2023-12-07T07:02:19;1.60;;;1.07;;
52294;SDS011;38243;53.212;6.574;2023-12-07T07:04:44;2.60;;;1.00;;
52294;SDS011;38243;53.212;6.574;2023-12-07T07:07:10;2.25;;;1.05;;
52294;SDS011;38243;53.212;6.574;2023-12-07T07:09:36;2.93;;;1.30;;
52294;SDS011;38243;53.212;6.574;2023-12-07T07:12:02;3.50;;;1.20;;
52294;SDS011;38243;53.212;6.574;2023-12-07T07:14:28;2.78;;;1.15;;
52294;SDS011;38243;53.212;6.574;2023-12-07T07:16:53;1.40;;;1.00;;
52294;SDS011;38243;53.212;6.574;2023-12-07T07:19:19;1.60;;;1.00;;
52294;SDS011;38243;53.212;6.574;2023-12-07T07:21:45;2.22;;;1.00;;
52294;SDS011;38243;53.212;6.574;2023-12-07T07:24:11;2.30;;;1.23;;
52294;SDS011;38243;53.212;6.574;2023-12-07T07:26:37;2.25;;;1.25;;
52294;SDS011;38243;53.212;6.574;2023-12-07T07:29:03;2.20;;;1.08;;
52294;SDS011;38243;53.212;6.574;2023-12-07T07:31:29;1.77;;;0.98;;
52294;SDS011;38243;53.212;6.574;2023-12-07T07:33:55;1.50;;;1.00;;
52294;SDS011;38243;53.212;6.574;2023-12-07T07:36:21;1.25;;;1.00;;
52294;SDS011;38243;53.212;6.574;2023-12-07T07:38:46;2.03;;;1.10;;
52294;SDS011;38243;53.212;6.574;2023-12-07T07:41:13;2.47;;;1.20;;
52294;SDS011;38243;53.212;6.574;2023-12-07T07:43:39;1.95;;;1.08;;
52294;SDS011;38243;53.212;6.574;2023-12-07T07:46:05;3.80;;;1.00;;
52294;SDS011;38243;53.212;6.574;2023-12-07T07:48:31;1.40;;;0.98;;
52294;SDS011;38243;53.212;6.574;2023-12-07T07:50:57;1.53;;;0.90;;
52294;SDS011;38243;53.212;6.574;2023-12-07T07:53:23;1.30;;;0.90;;
52294;SDS011;38243;53.212;6.574;2023-12-07T07:55:49;2.57;;;1.27;;
52294;SDS011;38243;53.212;6.574;2023-12-07T07:58:15;2.80;;;1.10;;
52294;SDS011;38243;53.212;6.574;2023-12-07T08:00:41;4.32;;;1.45;;
52294;SDS011;38243;53.212;6.574;2023-12-07T08:03:06;4.70;;;1.47;;
52294;SDS011;38243;53.212;6.574;2023-12-07T08:05:32;4.80;;;1.63;;
52294;SDS011;38243;53.212;6.574;2023-12-07T08:07:58;1.92;;;1.33;;
52294;SDS011;38243;53.212;6.574;2023-12-07T08:10:24;4.30;;;1.50;;
52294;SDS011;38243;53.212;6.574;2023-12-07T08:12:49;3.70;;;1.73;;
52294;SDS011;38243;53.212;6.574;2023-12-07T08:15:15;3.17;;;1.90;;
52294;SDS011;38243;53.212;6.574;2023-12-07T08:17:41;4.05;;;2.00;;
52294;SDS011;38243;53.212;6.574;2023-12-07T08:20:10;4.45;;;2.45;;
52294;SDS011;38243;53.212;6.574;2023-12-07T08:22:38;3.35;;;2.05;;
52294;SDS011;38243;53.212;6.574;2023-12-07T08:25:04;4.15;;;2.25;;
52294;SDS011;38243;53.212;6.574;2023-12-07T08:27:33;3.13;;;2.30;;
52294;SDS011;38243;53.212;6.574;2023-12-07T08:30:00;5.13;;;2.30;;
52294;SDS011;38243;53.212;6.574;2023-12-07T08:32:26;3.78;;;2.40;;
52294;SDS011;38243;53.212;6.574;2023-12-07T08:34:52;4.45;;;2.35;;
52294;SDS011;38243;53.212;6.574;2023-12-07T08:37:18;5.25;;;2.38;;
52294;SDS011;38243;53.212;6.574;2023-12-07T08:39:44;8.00;;;2.15;;
52294;SDS011;38243;53.212;6.574;2023-12-07T08:42:10;18.85;;;4.45;;
52294;SDS011;38243;53.212;6.574;2023-12-07T08:44:36;14.23;;;3.78;;
52294;SDS011;38243;53.212;6.574;2023-12-07T08:47:02;12.80;;;3.97;;
52294;SDS011;38243;53.212;6.574;2023-12-07T08:49:28;15.05;;;3.90;;
52294;SDS011;38243;53.212;6.574;2023-12-07T08:51:54;13.03;;;4.10;;
52294;SDS011;38243;53.212;6.574;2023-12-07T08:54:21;10.32;;;4.00;;
52294;SDS011;38243;53.212;6.574;2023-12-07T08:56:47;11.00;;;4.10;;
52294;SDS011;38243;53.212;6.574;2023-12-07T08:59:13;10.32;;;3.55;;
52294;SDS011;38243;53.212;6.574;2023-12-07T09:01:39;9.40;;;3.30;;
52294;SDS011;38243;53.212;6.574;2023-12-07T09:04:04;7.03;;;3.13;;
52294;SDS011;38243;53.212;6.574;2023-12-07T09:06:30;5.82;;;3.53;;
52294;SDS011;38243;53.212;6.574;2023-12-07T09:08:56;8.68;;;2.80;;
52294;SDS011;38243;53.212;6.574;2023-12-07T09:11:22;8.10;;;3.07;;
52294;SDS011;38243;53.212;6.574;2023-12-07T09:13:48;6.50;;;2.73;;
52294;SDS011;38243;53.212;6.574;2023-12-07T09:16:14;5.43;;;3.35;;
52294;SDS011;38243;53.212;6.574;2023-12-07T09:18:41;5.40;;;3.27;;
52294;SDS011;38243;53.212;6.574;2023-12-07T09:21:07;6.15;;;3.65;;
52294;SDS011;38243;53.212;6.574;2023-12-07T09:23:34;7.03;;;3.08;;
52294;SDS011;38243;53.212;6.574;2023-12-07T09:26:00;6.90;;;3.10;;
52294;SDS011;38243;53.212;6.574;2023-12-07T09:28:26;6.33;;;3.63;;
52294;SDS011;38243;53.212;6.574;2023-12-07T09:30:52;4.10;;;2.80;;
52294;SDS011;38243;53.212;6.574;2023-12-07T09:33:17;5.82;;;3.10;;
52294;SDS011;38243;53.212;6.574;2023-12-07T09:35:43;4.70;;;3.17;;
52294;SDS011;38243;53.212;6.574;2023-12-07T09:38:09;4.07;;;3.38;;
52294;SDS011;38243;53.212;6.574;2023-12-07T09:40:35;5.68;;;3.70;;
52294;SDS011;38243;53.212;6.574;2023-12-07T09:43:00;5.50;;;4.20;;
52294;SDS011;38243;53.212;6.574;2023-12-07T09:45:26;4.88;;;3.58;;
52294;SDS011;38243;53.212;6.574;2023-12-07T09:47:53;4.70;;;3.33;;
52294;SDS011;38243;53.212;6.574;2023-12-07T09:50:26;6.40;;;3.85;;
52294;SDS011;38243;53.212;6.574;2023-12-07T09:52:56;3.83;;;3.50;;
52294;SDS011;38243;53.212;6.574;2023-12-07T09:55:22;3.80;;;3.33;;
52294;SDS011;38243;53.212;6.574;2023-12-07T09:57:50;5.13;;;3.80;;
52294;SDS011;38243;53.212;6.574;2023-12-07T10:00:16;4.70;;;3.67;;
52294;SDS011;38243;53.212;6.574;2023-12-07T10:02:43;5.07;;;3.80;;
52294;SDS011;38243;53.212;6.574;2023-12-07T10:05:11;4.95;;;3.75;;
52294;SDS011;38243;53.212;6.574;2023-12-07T10:07:42;6.38;;;3.50;;
52294;SDS011;38243;53.212;6.574;2023-12-07T10:10:09;5.45;;;4.07;;
52294;SDS011;38243;53.212;6.574;2023-12-07T10:15:17;4.93;;;4.20;;
52294;SDS011;38243;53.212;6.574;2023-12-07T10:17:51;5.50;;;4.50;;
52294;SDS011;38243;53.212;6.574;2023-12-07T10:20:18;4.35;;;3.95;;
52294;SDS011;38243;53.212;6.574;2023-12-07T10:22:49;3.90;;;3.50;;
52294;SDS011;38243;53.212;6.574;2023-12-07T10:25:32;5.28;;;3.22;;
52294;SDS011;38243;53.212;6.574;2023-12-07T10:28:01;4.82;;;3.55;;
52294;SDS011;38243;53.212;6.574;2023-12-07T10:30:31;4.43;;;3.67;;
52294;SDS011;38243;53.212;6.574;2023-12-07T10:32:57;3.67;;;3.27;;
52294;SDS011;38243;53.212;6.574;2023-12-07T10:35:23;4.40;;;3.85;;
52294;SDS011;38243;53.212;6.574;2023-12-07T10:37:49;4.70;;;3.67;;
52294;SDS011;38243;53.212;6.574;2023-12-07T10:40:15;4.10;;;3.50;;
52294;SDS011;38243;53.212;6.574;2023-12-07T10:42:41;3.85;;;3.22;;
52294;SDS011;38243;53.212;6.574;2023-12-07T10:45:07;5.53;;;3.60;;
52294;SDS011;38243;53.212;6.574;2023-12-07T10:47:35;3.75;;;3.25;;
52294;SDS011;38243;53.212;6.574;2023-12-07T10:50:03;4.35;;;3.80;;
52294;SDS011;38243;53.212;6.574;2023-12-07T10:52:36;3.33;;;2.78;;
52294;SDS011;38243;53.212;6.574;2023-12-07T10:55:19;4.43;;;3.03;;
52294;SDS011;38243;53.212;6.574;2023-12-07T10:57:51;3.60;;;3.07;;
52294;SDS011;38243;53.212;6.574;2023-12-07T11:00:18;4.07;;;3.20;;
52294;SDS011;38243;53.212;6.574;2023-12-07T11:02:44;3.30;;;3.00;;
52294;SDS011;38243;53.212;6.574;2023-12-07T11:05:11;3.10;;;2.80;;
52294;SDS011;38243;53.212;6.574;2023-12-07T11:10:23;5.30;;;3.70;;
52294;SDS011;38243;53.212;6.574;2023-12-07T11:13:05;4.30;;;3.80;;
52294;SDS011;38243;53.212;6.574;2023-12-07T11:15:38;3.85;;;3.42;;
52294;SDS011;38243;53.212;6.574;2023-12-07T11:18:04;5.05;;;2.65;;
52294;SDS011;38243;53.212;6.574;2023-12-07T11:20:40;4.30;;;3.17;;
52294;SDS011;38243;53.212;6.574;2023-12-07T11:23:09;4.82;;;3.40;;
52294;SDS011;38243;53.212;6.574;2023-12-07T11:25:35;2.92;;;2.60;;
52294;SDS011;38243;53.212;6.574;2023-12-07T11:28:05;4.32;;;2.90;;
52294;SDS011;38243;53.212;6.574;2023-12-07T11:30:33;3.78;;;3.10;;
52294;SDS011;38243;53.212;6.574;2023-12-07T11:33:04;4.65;;;3.33;;
52294;SDS011;38243;53.212;6.574;2023-12-07T11:35:31;3.63;;;2.80;;
52294;SDS011;38243;53.212;6.574;2023-12-07T11:38:01;3.60;;;2.53;;
52294;SDS011;38243;53.212;6.574;2023-12-07T11:40:37;3.65;;;2.60;;
52294;SDS011;38243;53.212;6.574;2023-12-07T11:43:06;3.50;;;2.60;;
52294;SDS011;38243;53.212;6.574;2023-12-07T11:45:35;4.28;;;3.30;;
52294;SDS011;38243;53.212;6.574;2023-12-07T11:48:14;4.00;;;2.90;;
52294;SDS011;38243;53.212;6.574;2023-12-07T11:50:53;3.50;;;2.70;;
52294;SDS011;38243;53.212;6.574;2023-12-07T11:58:24;3.55;;;3.25;;
52294;SDS011;38243;53.212;6.574;2023-12-07T12:00:54;3.38;;;2.80;;
52294;SDS011;38243;53.212;6.574;2023-12-07T12:03:21;2.95;;;2.65;;
52294;SDS011;38243;53.212;6.574;2023-12-07T12:05:48;4.35;;;2.60;;
52294;SDS011;38243;53.212;6.574;2023-12-07T12:08:15;3.03;;;2.50;;
52294;SDS011;38243;53.212;6.574;2023-12-07T12:10:42;4.97;;;4.20;;
52294;SDS011;38243;53.212;6.574;2023-12-07T12:13:08;3.60;;;3.20;;
52294;SDS011;38243;53.212;6.574;2023-12-07T12:15:35;5.93;;;4.00;;
52294;SDS011;38243;53.212;6.574;2023-12-07T12:18:00;5.10;;;3.90;;
52294;SDS011;38243;53.212;6.574;2023-12-07T12:20:26;5.38;;;3.88;;
52294;SDS011;38243;53.212;6.574;2023-12-07T12:22:53;4.20;;;3.80;;
52294;SDS011;38243;53.212;6.574;2023-12-07T12:25:23;4.65;;;3.90;;
52294;SDS011;38243;53.212;6.574;2023-12-07T12:27:57;4.32;;;3.70;;
52294;SDS011;38243;53.212;6.574;2023-12-07T12:30:26;4.88;;;3.78;;
52294;SDS011;38243;53.212;6.574;2023-12-07T12:32:53;4.20;;;3.80;;
52294;SDS011;38243;53.212;6.574;2023-12-07T12:35:19;4.78;;;3.88;;
52294;SDS011;38243;53.212;6.574;2023-12-07T12:37:45;4.60;;;4.20;;
52294;SDS011;38243;53.212;6.574;2023-12-07T12:40:14;5.43;;;4.38;;
52294;SDS011;38243;53.212;6.574;2023-12-07T12:42:45;5.07;;;4.05;;
52294;SDS011;38243;53.212;6.574;2023-12-07T12:45:15;5.75;;;4.28;;
52294;SDS011;38243;53.212;6.574;2023-12-07T12:47:43;5.32;;;4.47;;
52294;SDS011;38243;53.212;6.574;2023-12-07T12:50:11;5.07;;;4.57;;
52294;SDS011;38243;53.212;6.574;2023-12-07T12:52:39;4.35;;;3.85;;
52294;SDS011;38243;53.212;6.574;2023-12-07T12:55:09;5.70;;;4.80;;
52294;SDS011;38243;53.212;6.574;2023-12-07T12:57:36;5.35;;;4.85;;
52294;SDS011;38243;53.212;6.574;2023-12-07T13:00:03;5.90;;;5.30;;
52294;SDS011;38243;53.212;6.574;2023-12-07T13:02:32;5.68;;;5.10;;
52294;SDS011;38243;53.212;6.574;2023-12-07T13:04:59;6.25;;;5.40;;
52294;SDS011;38243;53.212;6.574;2023-12-07T13:07:25;6.95;;;5.40;;
52294;SDS011;38243;53.212;6.574;2023-12-07T13:09:51;6.10;;;5.35;;
52294;SDS011;38243;53.212;6.574;2023-12-07T13:12:17;5.45;;;4.95;;
52294;SDS011;38243;53.212;6.574;2023-12-07T13:14:43;6.40;;;5.20;;
52294;SDS011;38243;53.212;6.574;2023-12-07T13:17:08;5.20;;;4.70;;
52294;SDS011;38243;53.212;6.574;2023-12-07T13:19:34;4.22;;;3.83;;
52294;SDS011;38243;53.212;6.574;2023-12-07T13:22:00;5.20;;;4.70;;
52294;SDS011;38243;53.212;6.574;2023-12-07T13:24:28;4.70;;;4.20;;
52294;SDS011;38243;53.212;6.574;2023-12-07T13:26:54;5.03;;;4.53;;
52294;SDS011;38243;53.212;6.574;2023-12-07T13:29:21;4.43;;;4.03;;
52294;SDS011;38243;53.212;6.574;2023-12-07T13:31:48;4.93;;;4.43;;
52294;SDS011;38243;53.212;6.574;2023-12-07T13:34:15;4.15;;;3.75;;
52294;SDS011;38243;53.212;6.574;2023-12-07T13:36:40;4.57;;;3.42;;
52294;SDS011;38243;53.212;6.574;2023-12-07T13:39:06;3.85;;;3.45;;
52294;SDS011;38243;53.212;6.574;2023-12-07T13:41:34;4.95;;;4.05;;
52294;SDS011;38243;53.212;6.574;2023-12-07T13:44:00;4.28;;;3.88;;
52294;SDS011;38243;53.212;6.574;2023-12-07T13:46:29;5.20;;;4.45;;
52294;SDS011;38243;53.212;6.574;2023-12-07T13:48:56;4.25;;;3.65;;
52294;SDS011;38243;53.212;6.574;2023-12-07T13:51:22;4.90;;;4.50;;
52294;SDS011;38243;53.212;6.574;2023-12-07T13:53:48;4.68;;;4.28;;
52294;SDS011;38243;53.212;6.574;2023-12-07T13:56:14;4.53;;;4.13;;
52294;SDS011;38243;53.212;6.574;2023-12-07T13:58:40;4.50;;;4.07;;
52294;SDS011;38243;53.212;6.574;2023-12-07T14:01:06;4.40;;;4.00;;
52294;SDS011;38243;53.212;6.574;2023-12-07T14:03:32;5.70;;;4.65;;
52294;SDS011;38243;53.212;6.574;2023-12-07T14:05:58;5.18;;;4.68;;
52294;SDS011;38243;53.212;6.574;2023-12-07T14:08:24;5.43;;;4.93;;
52294;SDS011;38243;53.212;6.574;2023-12-07T14:10:51;5.15;;;4.65;;
52294;SDS011;38243;53.212;6.574;2023-12-07T14:13:16;5.30;;;4.80;;
52294;SDS011;38243;53.212;6.574;2023-12-07T14:15:43;6.00;;;5.30;;
52294;SDS011;38243;53.212;6.574;2023-12-07T14:18:08;5.78;;;5.28;;
52294;SDS011;38243;53.212;6.574;2023-12-07T14:20:34;6.00;;;5.40;;
52294;SDS011;38243;53.212;6.574;2023-12-07T14:23:00;5.73;;;5.13;;
52294;SDS011;38243;53.212;6.574;2023-12-07T14:25:29;5.75;;;5.10;;
52294;SDS011;38243;53.212;6.574;2023-12-07T14:27:55;6.95;;;5.35;;
52294;SDS011;38243;53.212;6.574;2023-12-07T14:30:21;4.80;;;4.30;;
52294;SDS011;38243;53.212;6.574;2023-12-07T14:32:47;5.70;;;5.10;;
52294;SDS011;38243;53.212;6.574;2023-12-07T14:35:17;4.97;;;4.47;;
52294;SDS011;38243;53.212;6.574;2023-12-07T14:37:46;6.03;;;4.90;;
52294;SDS011;38243;53.212;6.574;2023-12-07T14:40:14;5.33;;;4.83;;
52294;SDS011;38243;53.212;6.574;2023-12-07T14:42:42;6.05;;;4.80;;
52294;SDS011;38243;53.212;6.574;2023-12-07T14:45:08;6.70;;;5.40;;
52294;SDS011;38243;53.212;6.574;2023-12-07T14:47:35;6.53;;;5.53;;
52294;SDS011;38243;53.212;6.574;2023-12-07T14:50:01;6.18;;;5.15;;
52294;SDS011;38243;53.212;6.574;2023-12-07T14:52:28;5.65;;;4.82;;
52294;SDS011;38243;53.212;6.574;2023-12-07T14:54:54;7.40;;;6.38;;
52294;SDS011;38243;53.212;6.574;2023-12-07T14:57:19;7.80;;;6.47;;